sensor_id;sensor_type;location;lat;lon;timestamp;pressure;altitude;pressure_sealevel;temperature;humidity
49515;BME280;35415;47.870;16.058;2022-09-02T00:00:10;97559.78;;;10.82;84.96
49515;BME280;35415;47.870;16.058;2022-09-02T00:02:37;97615.13;;;11.15;85.12
49515;BME280;35415;47.870;16.058;2022-09-02T00:05:05;97621.56;;;11.09;85.02
49515;BME280;35415;47.870;16.058;2022-09-02T00:07:36;97639.16;;;11.32;84.97
49515;BME280;35415;47.870;16.058;2022-09-02T00:10:04;97594.53;;;10.89;85.26
49515;BME280;35415;47.870;16.058;2022-09-02T00:12:32;97562.94;;;10.74;84.96
49515;BME280;35415;47.870;16.058;2022-09-02T00:15:01;97642.06;;;11.21;85.37
49515;BME280;35415;47.870;16.058;2022-09-02T00:17:30;97513.78;;;10.32;85.13
49515;BME280;35415;47.870;16.058;2022-09-02T00:19:58;97578.28;;;10.74;85.32
49515;BME280;35415;47.870;16.058;2022-09-02T00:22:30;97621.75;;;10.98;85.51
49515;BME280;35415;47.870;16.058;2022-09-02T00:24:58;97586.13;;;10.75;85.46
49515;BME280;35415;47.870;16.058;2022-09-02T00:27:26;97598.53;;;10.81;85.46
49515;BME280;35415;47.870;16.058;2022-09-02T00:29:53;97630.94;;;11.02;85.64
49515;BME280;35415;47.870;16.058;2022-09-02T00:32:25;97559.16;;;10.65;86.09
49515;BME280;35415;47.870;16.058;2022-09-02T00:34:52;97580.44;;;10.72;85.66
49515;BME280;35415;47.870;16.058;2022-09-02T00:37:23;97616.09;;;10.94;86.32
49515;BME280;35415;47.870;16.058;2022-09-02T00:39:52;97583.13;;;10.72;86.10
49515;BME280;35415;47.870;16.058;2022-09-02T00:42:20;97540.50;;;10.48;86.03
49515;BME280;35415;47.870;16.058;2022-09-02T00:44:48;97605.25;;;10.84;86.27
49515;BME280;35415;47.870;16.058;2022-09-02T00:47:19;97564.47;;;10.55;86.17
49515;BME280;35415;47.870;16.058;2022-09-02T00:49:51;97528.59;;;10.39;86.19
49515;BME280;35415;47.870;16.058;2022-09-02T00:52:24;97568.22;;;10.54;86.16
49515;BME280;35415;47.870;16.058;2022-09-02T00:54:56;97597.19;;;10.84;86.17
49515;BME280;35415;47.870;16.058;2022-09-02T00:57:27;97490.44;;;10.05;86.35
49515;BME280;35415;47.870;16.058;2022-09-02T01:00:03;97606.59;;;10.81;86.18
49515;BME280;35415;47.870;16.058;2022-09-02T01:02:34;97500.69;;;10.08;86.33
49515;BME280;35415;47.870;16.058;2022-09-02T01:05:11;97550.63;;;10.36;86.20
49515;BME280;35415;47.870;16.058;2022-09-02T01:07:39;97590.84;;;10.58;86.08
49515;BME280;35415;47.870;16.058;2022-09-02T01:10:11;97522.00;;;10.20;86.22
49515;BME280;35415;47.870;16.058;2022-09-02T01:12:41;97607.06;;;10.68;86.54
49515;BME280;35415;47.870;16.058;2022-09-02T01:15:10;97516.03;;;10.13;86.32
49515;BME280;35415;47.870;16.058;2022-09-02T01:17:42;97571.06;;;10.37;86.69
49515;BME280;35415;47.870;16.058;2022-09-02T01:20:16;97572.16;;;10.36;86.66
49515;BME280;35415;47.870;16.058;2022-09-02T01:22:48;97615.03;;;10.58;86.94
49515;BME280;35415;47.870;16.058;2022-09-02T01:25:18;97529.13;;;10.04;86.83
49515;BME280;35415;47.870;16.058;2022-09-02T01:27:47;97521.84;;;10.00;86.81
49515;BME280;35415;47.870;16.058;2022-09-02T01:30:17;97561.50;;;10.19;86.93
49515;BME280;35415;47.870;16.058;2022-09-02T01:32:46;97507.22;;;9.85;86.45
49515;BME280;35415;47.870;16.058;2022-09-02T01:35:14;97563.34;;;10.14;87.24
49515;BME280;35415;47.870;16.058;2022-09-02T01:37:42;97586.91;;;10.34;87.13
49515;BME280;35415;47.870;16.058;2022-09-02T01:40:15;97595.34;;;10.47;86.92
49515;BME280;35415;47.870;16.058;2022-09-02T01:42:46;97590.69;;;10.38;87.17
49515;BME280;35415;47.870;16.058;2022-09-02T01:45:14;97570.69;;;10.23;87.05
49515;BME280;35415;47.870;16.058;2022-09-02T01:47:42;97546.00;;;9.94;87.12
49515;BME280;35415;47.870;16.058;2022-09-02T01:50:10;97495.28;;;9.71;86.89
49515;BME280;35415;47.870;16.058;2022-09-02T01:52:38;97532.03;;;9.98;87.20
49515;BME280;35415;47.870;16.058;2022-09-02T01:55:07;97508.72;;;9.71;87.14
49515;BME280;35415;47.870;16.058;2022-09-02T01:57:36;97580.16;;;10.26;87.15
49515;BME280;35415;47.870;16.058;2022-09-02T02:00:07;97519.03;;;9.84;87.03
49515;BME280;35415;47.870;16.058;2022-09-02T02:02:36;97538.78;;;10.00;86.95
49515;BME280;35415;47.870;16.058;2022-09-02T02:05:05;97516.09;;;9.86;87.00
49515;BME280;35415;47.870;16.058;2022-09-02T02:07:33;97543.34;;;10.00;86.80
49515;BME280;35415;47.870;16.058;2022-09-02T02:10:04;97491.50;;;9.67;86.77
49515;BME280;35415;47.870;16.058;2022-09-02T02:12:32;97475.53;;;9.55;86.84
49515;BME280;35415;47.870;16.058;2022-09-02T02:15:04;97592.78;;;10.26;87.11
49515;BME280;35415;47.870;16.058;2022-09-02T02:17:33;97499.91;;;9.76;86.91
49515;BME280;35415;47.870;16.058;2022-09-02T02:20:01;97576.56;;;10.20;86.98
49515;BME280;35415;47.870;16.058;2022-09-02T02:22:29;97557.34;;;10.02;86.89
49515;BME280;35415;47.870;16.058;2022-09-02T02:24:57;97519.00;;;9.79;86.75
49515;BME280;35415;47.870;16.058;2022-09-02T02:27:27;97565.94;;;10.04;87.05
49515;BME280;35415;47.870;16.058;2022-09-02T02:29:54;97576.78;;;10.14;87.10
49515;BME280;35415;47.870;16.058;2022-09-02T02:32:23;97575.19;;;10.13;87.10
49515;BME280;35415;47.870;16.058;2022-09-02T02:34:52;97571.88;;;10.06;87.07
49515;BME280;35415;47.870;16.058;2022-09-02T02:37:21;97488.69;;;9.52;87.05
49515;BME280;35415;47.870;16.058;2022-09-02T02:39:49;97544.03;;;9.85;87.11
49515;BME280;35415;47.870;16.058;2022-09-02T02:42:16;97562.41;;;9.98;87.08
49515;BME280;35415;47.870;16.058;2022-09-02T02:44:45;97498.59;;;9.51;87.16
49515;BME280;35415;47.870;16.058;2022-09-02T02:47:18;97497.47;;;9.42;87.31
49515;BME280;35415;47.870;16.058;2022-09-02T02:49:47;97588.22;;;9.99;86.98
49515;BME280;35415;47.870;16.058;2022-09-02T02:52:14;97519.69;;;9.64;86.98
49515;BME280;35415;47.870;16.058;2022-09-02T02:54:44;97567.78;;;9.98;86.84
49515;BME280;35415;47.870;16.058;2022-09-02T02:57:15;97550.22;;;9.85;86.62
49515;BME280;35415;47.870;16.058;2022-09-02T02:59:42;97487.81;;;9.46;86.64
49515;BME280;35415;47.870;16.058;2022-09-02T03:02:10;97406.56;;;8.97;86.80
49515;BME280;35415;47.870;16.058;2022-09-02T03:04:38;97489.59;;;9.35;86.90
49515;BME280;35415;47.870;16.058;2022-09-02T03:07:09;97451.88;;;9.20;86.81
49515;BME280;35415;47.870;16.058;2022-09-02T03:09:36;97477.25;;;9.34;86.63
49515;BME280;35415;47.870;16.058;2022-09-02T03:12:06;97491.44;;;9.30;86.72
49515;BME280;35415;47.870;16.058;2022-09-02T03:14:34;97504.72;;;9.42;86.55
49515;BME280;35415;47.870;16.058;2022-09-02T03:17:03;97533.50;;;9.51;86.77
49515;BME280;35415;47.870;16.058;2022-09-02T03:19:31;97559.41;;;9.62;86.87
49515;BME280;35415;47.870;16.058;2022-09-02T03:21:59;97474.00;;;9.05;86.85
49515;BME280;35415;47.870;16.058;2022-09-02T03:24:28;97493.56;;;9.28;86.95
49515;BME280;35415;47.870;16.058;2022-09-02T03:26:56;97498.94;;;9.28;86.66
49515;BME280;35415;47.870;16.058;2022-09-02T03:29:24;97515.94;;;9.39;86.80
49515;BME280;35415;47.870;16.058;2022-09-02T03:31:54;97554.81;;;9.58;86.74
49515;BME280;35415;47.870;16.058;2022-09-02T03:34:23;97548.03;;;9.55;86.84
49515;BME280;35415;47.870;16.058;2022-09-02T03:36:51;97499.06;;;9.16;86.77
49515;BME280;35415;47.870;16.058;2022-09-02T03:39:18;97485.06;;;9.09;86.79
49515;BME280;35415;47.870;16.058;2022-09-02T03:41:48;97495.06;;;9.19;86.76
49515;BME280;35415;47.870;16.058;2022-09-02T03:44:17;97501.50;;;9.18;86.67
49515;BME280;35415;47.870;16.058;2022-09-02T03:46:45;97517.97;;;9.26;86.85
49515;BME280;35415;47.870;16.058;2022-09-02T03:49:12;97489.66;;;9.14;86.78
49515;BME280;35415;47.870;16.058;2022-09-02T03:51:41;97573.28;;;9.54;86.93
49515;BME280;35415;47.870;16.058;2022-09-02T03:54:09;97471.22;;;8.95;86.82
49515;BME280;35415;47.870;16.058;2022-09-02T03:56:37;97552.81;;;9.48;86.92
49515;BME280;35415;47.870;16.058;2022-09-02T03:59:06;97533.19;;;9.21;86.79
49515;BME280;35415;47.870;16.058;2022-09-02T04:01:34;97546.47;;;9.32;86.54
49515;BME280;35415;47.870;16.058;2022-09-02T04:04:03;97497.06;;;9.07;86.76
49515;BME280;35415;47.870;16.058;2022-09-02T04:06:31;97506.94;;;9.01;86.58
49515;BME280;35415;47.870;16.058;2022-09-02T04:08:59;97532.09;;;9.17;86.68
49515;BME280;35415;47.870;16.058;2022-09-02T04:11:29;97572.56;;;9.37;86.68
49515;BME280;35415;47.870;16.058;2022-09-02T04:13:57;97493.09;;;8.87;86.71
49515;BME280;35415;47.870;16.058;2022-09-02T04:16:29;97484.25;;;8.87;86.64
49515;BME280;35415;47.870;16.058;2022-09-02T04:18:57;97481.22;;;8.78;86.73
49515;BME280;35415;47.870;16.058;2022-09-02T04:21:26;97519.03;;;9.03;87.02
49515;BME280;35415;47.870;16.058;2022-09-02T04:23:55;97520.63;;;8.99;86.92
49515;BME280;35415;47.870;16.058;2022-09-02T04:26:23;97491.75;;;8.85;87.08
49515;BME280;35415;47.870;16.058;2022-09-02T04:28:51;97533.34;;;9.09;87.00
49515;BME280;35415;47.870;16.058;2022-09-02T04:31:20;97588.38;;;9.33;86.94
49515;BME280;35415;47.870;16.058;2022-09-02T04:33:51;97560.03;;;9.21;86.96
49515;BME280;35415;47.870;16.058;2022-09-02T04:36:19;97558.09;;;9.16;86.69
49515;BME280;35415;47.870;16.058;2022-09-02T04:38:47;97579.16;;;9.24;86.80
49515;BME280;35415;47.870;16.058;2022-09-02T04:41:19;97521.81;;;8.87;86.80
49515;BME280;35415;47.870;16.058;2022-09-02T04:43:51;97492.81;;;8.62;86.97
49515;BME280;35415;47.870;16.058;2022-09-02T04:46:20;97581.19;;;9.17;86.77
49515;BME280;35415;47.870;16.058;2022-09-02T04:48:47;97565.97;;;9.01;86.89
49515;BME280;35415;47.870;16.058;2022-09-02T04:51:19;97548.81;;;9.02;86.83
49515;BME280;35415;47.870;16.058;2022-09-02T04:53:48;97590.81;;;9.13;86.87
49515;BME280;35415;47.870;16.058;2022-09-02T04:56:19;97526.56;;;8.80;86.96
49515;BME280;35415;47.870;16.058;2022-09-02T04:58:49;97515.56;;;8.59;87.36
49515;BME280;35415;47.870;16.058;2022-09-02T05:01:20;97517.66;;;8.74;87.13
49515;BME280;35415;47.870;16.058;2022-09-02T05:03:48;97575.47;;;9.09;87.22
49515;BME280;35415;47.870;16.058;2022-09-02T05:06:23;97577.41;;;9.13;87.40
49515;BME280;35415;47.870;16.058;2022-09-02T05:08:52;97485.44;;;8.52;87.46
49515;BME280;35415;47.870;16.058;2022-09-02T05:11:23;97494.38;;;8.58;87.60
49515;BME280;35415;47.870;16.058;2022-09-02T05:13:54;97547.91;;;8.91;87.83
49515;BME280;35415;47.870;16.058;2022-09-02T05:16:25;97535.47;;;8.85;87.83
49515;BME280;35415;47.870;16.058;2022-09-02T05:18:53;97463.31;;;8.40;87.76
49515;BME280;35415;47.870;16.058;2022-09-02T05:21:23;97471.47;;;8.50;87.91
49515;BME280;35415;47.870;16.058;2022-09-02T05:23:51;97556.31;;;9.00;87.99
49515;BME280;35415;47.870;16.058;2022-09-02T05:26:19;97577.28;;;9.25;88.04
49515;BME280;35415;47.870;16.058;2022-09-02T05:28:47;97486.13;;;8.64;87.86
49515;BME280;35415;47.870;16.058;2022-09-02T05:31:17;97518.41;;;8.91;87.76
49515;BME280;35415;47.870;16.058;2022-09-02T05:33:45;97542.88;;;9.00;87.43
49515;BME280;35415;47.870;16.058;2022-09-02T05:36:16;97569.28;;;9.30;87.38
49515;BME280;35415;47.870;16.058;2022-09-02T05:38:45;97535.47;;;9.07;87.30
49515;BME280;35415;47.870;16.058;2022-09-02T05:41:15;97437.75;;;8.54;87.49
49515;BME280;35415;47.870;16.058;2022-09-02T05:43:44;97577.41;;;9.40;87.16
49515;BME280;35415;47.870;16.058;2022-09-02T05:46:15;97559.94;;;9.38;87.76
49515;BME280;35415;47.870;16.058;2022-09-02T05:48:44;97460.56;;;8.79;87.26
49515;BME280;35415;47.870;16.058;2022-09-02T05:51:29;97551.97;;;9.43;87.44
49515;BME280;35415;47.870;16.058;2022-09-02T05:54:00;97543.66;;;9.44;86.77
49515;BME280;35415;47.870;16.058;2022-09-02T05:56:27;97477.94;;;8.98;86.64
49515;BME280;35415;47.870;16.058;2022-09-02T05:58:56;97456.09;;;8.89;86.33
49515;BME280;35415;47.870;16.058;2022-09-02T06:01:24;97472.69;;;9.08;86.68
49515;BME280;35415;47.870;16.058;2022-09-02T06:03:52;97488.06;;;9.18;86.72
49515;BME280;35415;47.870;16.058;2022-09-02T06:06:22;97559.72;;;9.66;86.94
49515;BME280;35415;47.870;16.058;2022-09-02T06:08:49;97537.63;;;9.59;86.94
49515;BME280;35415;47.870;16.058;2022-09-02T06:11:19;97551.25;;;9.79;87.10
49515;BME280;35415;47.870;16.058;2022-09-02T06:13:46;97547.78;;;9.84;87.51
49515;BME280;35415;47.870;16.058;2022-09-02T06:16:18;97554.00;;;9.89;87.12
49515;BME280;35415;47.870;16.058;2022-09-02T06:18:46;97549.25;;;9.97;87.11
49515;BME280;35415;47.870;16.058;2022-09-02T06:21:14;97544.16;;;10.00;86.82
49515;BME280;35415;47.870;16.058;2022-09-02T06:23:42;97533.19;;;10.07;86.69
49515;BME280;35415;47.870;16.058;2022-09-02T06:26:11;97504.09;;;9.93;86.56
49515;BME280;35415;47.870;16.058;2022-09-02T06:28:41;97511.19;;;10.10;86.16
49515;BME280;35415;47.870;16.058;2022-09-02T06:31:11;97423.00;;;9.64;86.57
49515;BME280;35415;47.870;16.058;2022-09-02T06:33:39;97493.09;;;10.00;85.93
49515;BME280;35415;47.870;16.058;2022-09-02T06:36:08;97505.16;;;10.30;85.79
49515;BME280;35415;47.870;16.058;2022-09-02T06:38:37;97463.28;;;10.02;85.60
49515;BME280;35415;47.870;16.058;2022-09-02T06:41:05;97466.59;;;10.14;85.42
49515;BME280;35415;47.870;16.058;2022-09-02T06:43:33;97536.84;;;10.70;85.10
49515;BME280;35415;47.870;16.058;2022-09-02T06:46:03;97536.38;;;10.78;85.32
49515;BME280;35415;47.870;16.058;2022-09-02T06:48:30;97491.84;;;10.55;84.86
49515;BME280;35415;47.870;16.058;2022-09-02T06:50:59;97481.94;;;10.66;84.95
49515;BME280;35415;47.870;16.058;2022-09-02T06:53:29;97518.16;;;11.00;84.12
49515;BME280;35415;47.870;16.058;2022-09-02T06:55:57;97417.06;;;10.52;84.53
49515;BME280;35415;47.870;16.058;2022-09-02T06:58:24;97476.97;;;11.00;83.71
49515;BME280;35415;47.870;16.058;2022-09-02T07:00:51;97522.00;;;11.35;83.19
49515;BME280;35415;47.870;16.058;2022-09-02T07:03:23;97463.25;;;11.01;83.01
49515;BME280;35415;47.870;16.058;2022-09-02T07:06:10;97523.66;;;11.56;82.75
49515;BME280;35415;47.870;16.058;2022-09-02T07:08:39;97526.66;;;11.65;82.27
49515;BME280;35415;47.870;16.058;2022-09-02T07:11:14;97518.56;;;11.75;82.53
49515;BME280;35415;47.870;16.058;2022-09-02T07:13:45;97532.88;;;11.91;82.44
49515;BME280;35415;47.870;16.058;2022-09-02T07:16:13;97519.72;;;11.94;81.94
49515;BME280;35415;47.870;16.058;2022-09-02T07:18:42;97526.97;;;12.14;82.35
49515;BME280;35415;47.870;16.058;2022-09-02T07:21:12;97531.25;;;12.25;81.68
49515;BME280;35415;47.870;16.058;2022-09-02T07:23:39;97509.69;;;12.25;81.25
49515;BME280;35415;47.870;16.058;2022-09-02T07:26:10;97527.22;;;12.43;81.18
49515;BME280;35415;47.870;16.058;2022-09-02T07:28:38;97506.94;;;12.51;80.90
49515;BME280;35415;47.870;16.058;2022-09-02T07:31:07;97524.97;;;12.71;80.86
49515;BME280;35415;47.870;16.058;2022-09-02T07:33:35;97500.44;;;12.67;80.99
49515;BME280;35415;47.870;16.058;2022-09-02T07:36:07;97425.00;;;12.31;79.46
49515;BME280;35415;47.870;16.058;2022-09-02T07:38:38;97496.56;;;12.93;79.70
49515;BME280;35415;47.870;16.058;2022-09-02T07:41:08;97476.06;;;12.87;78.69
49515;BME280;35415;47.870;16.058;2022-09-02T07:43:38;97516.94;;;13.30;78.47
49515;BME280;35415;47.870;16.058;2022-09-02T07:46:07;97473.00;;;13.04;74.88
49515;BME280;35415;47.870;16.058;2022-09-02T07:48:35;97454.34;;;13.08;74.36
49515;BME280;35415;47.870;16.058;2022-09-02T07:51:05;97482.59;;;13.36;74.73
49515;BME280;35415;47.870;16.058;2022-09-02T07:53:36;97513.41;;;13.74;74.04
49515;BME280;35415;47.870;16.058;2022-09-02T07:56:05;97511.72;;;13.83;72.88
49515;BME280;35415;47.870;16.058;2022-09-02T07:58:35;97479.06;;;13.74;71.59
49515;BME280;35415;47.870;16.058;2022-09-02T08:01:03;97511.25;;;14.05;72.74
49515;BME280;35415;47.870;16.058;2022-09-02T08:03:31;97450.63;;;13.82;71.16
49515;BME280;35415;47.870;16.058;2022-09-02T08:05:59;97467.75;;;14.01;70.25
49515;BME280;35415;47.870;16.058;2022-09-02T08:08:30;97501.56;;;14.33;70.12
49515;BME280;35415;47.870;16.058;2022-09-02T08:10:58;97436.72;;;13.94;71.00
49515;BME280;35415;47.870;16.058;2022-09-02T08:13:25;97459.38;;;14.27;70.11
49515;BME280;35415;47.870;16.058;2022-09-02T08:15:53;97477.81;;;14.54;72.03
49515;BME280;35415;47.870;16.058;2022-09-02T08:18:21;97494.31;;;14.81;70.56
49515;BME280;35415;47.870;16.058;2022-09-02T08:20:49;97502.78;;;14.93;71.40
49515;BME280;35415;47.870;16.058;2022-09-02T08:23:17;97418.91;;;14.46;70.25
49515;BME280;35415;47.870;16.058;2022-09-02T08:25:45;97433.44;;;14.73;69.49
49515;BME280;35415;47.870;16.058;2022-09-02T08:28:13;97467.91;;;15.11;68.91
49515;BME280;35415;47.870;16.058;2022-09-02T08:30:43;97469.31;;;15.27;68.07
49515;BME280;35415;47.870;16.058;2022-09-02T08:33:11;97431.06;;;15.10;68.21
49515;BME280;35415;47.870;16.058;2022-09-02T08:35:38;97488.63;;;15.63;66.91
49515;BME280;35415;47.870;16.058;2022-09-02T08:38:05;97506.53;;;15.78;66.10
49515;BME280;35415;47.870;16.058;2022-09-02T08:40:36;97396.44;;;15.25;65.25
49515;BME280;35415;47.870;16.058;2022-09-02T08:43:16;97417.25;;;15.49;65.51
49515;BME280;35415;47.870;16.058;2022-09-02T08:45:47;97483.25;;;16.09;63.38
49515;BME280;35415;47.870;16.058;2022-09-02T08:48:20;97424.06;;;15.79;62.71
49515;BME280;35415;47.870;16.058;2022-09-02T08:50:48;97488.34;;;16.30;67.27
49515;BME280;35415;47.870;16.058;2022-09-02T08:53:18;97485.63;;;16.43;63.02
49515;BME280;35415;47.870;16.058;2022-09-02T08:55:54;97471.69;;;16.50;62.65
49515;BME280;35415;47.870;16.058;2022-09-02T08:58:26;97459.22;;;16.49;62.66
49515;BME280;35415;47.870;16.058;2022-09-02T09:01:02;97444.41;;;16.55;63.05
49515;BME280;35415;47.870;16.058;2022-09-02T09:03:38;97398.25;;;16.41;62.51
49515;BME280;35415;47.870;16.058;2022-09-02T09:06:14;97478.44;;;17.07;62.16
49515;BME280;35415;47.870;16.058;2022-09-02T09:08:50;97410.63;;;16.75;61.73
49515;BME280;35415;47.870;16.058;2022-09-02T09:11:24;97411.44;;;16.89;59.69
49515;BME280;35415;47.870;16.058;2022-09-02T09:14:04;97428.19;;;17.19;60.71
49515;BME280;35415;47.870;16.058;2022-09-02T09:16:39;97466.91;;;17.60;58.26
49515;BME280;35415;47.870;16.058;2022-09-02T09:19:11;97418.31;;;17.45;59.10
49515;BME280;35415;47.870;16.058;2022-09-02T09:21:42;97468.31;;;17.94;58.27
49515;BME280;35415;47.870;16.058;2022-09-02T09:24:25;97450.69;;;17.91;59.64
49515;BME280;35415;47.870;16.058;2022-09-02T09:26:55;97369.13;;;17.55;57.12
49515;BME280;35415;47.870;16.058;2022-09-02T09:29:25;97421.19;;;18.07;58.13
49515;BME280;35415;47.870;16.058;2022-09-02T09:31:55;97429.75;;;18.23;57.61
49515;BME280;35415;47.870;16.058;2022-09-02T09:34:55;97461.63;;;18.62;59.00
49515;BME280;35415;47.870;16.058;2022-09-02T09:37:30;97451.16;;;18.78;55.94
49515;BME280;35415;47.870;16.058;2022-09-02T09:39:58;97412.81;;;18.66;55.31
49515;BME280;35415;47.870;16.058;2022-09-02T09:42:33;97390.22;;;18.65;55.72
49515;BME280;35415;47.870;16.058;2022-09-02T09:45:16;97373.88;;;18.74;55.99
49515;BME280;35415;47.870;16.058;2022-09-02T09:48:09;97441.66;;;19.41;57.47
49515;BME280;35415;47.870;16.058;2022-09-02T09:50:40;97404.09;;;19.20;54.80
49515;BME280;35415;47.870;16.058;2022-09-02T09:53:16;97418.06;;;19.36;55.84
49515;BME280;35415;47.870;16.058;2022-09-02T09:55:53;97448.09;;;19.71;55.27
49515;BME280;35415;47.870;16.058;2022-09-02T09:58:22;97403.31;;;19.63;54.29
49515;BME280;35415;47.870;16.058;2022-09-02T10:00:54;97412.75;;;19.92;54.01
49515;BME280;35415;47.870;16.058;2022-09-02T10:03:26;97417.22;;;20.05;52.15
49515;BME280;35415;47.870;16.058;2022-09-02T10:05:56;97396.38;;;20.00;53.45
49515;BME280;35415;47.870;16.058;2022-09-02T10:08:26;97379.47;;;19.98;53.79
49515;BME280;35415;47.870;16.058;2022-09-02T10:10:56;97370.94;;;20.08;49.26
49515;BME280;35415;47.870;16.058;2022-09-02T10:13:27;97402.00;;;20.51;52.19
49515;BME280;35415;47.870;16.058;2022-09-02T10:16:20;97416.66;;;20.76;52.76
49515;BME280;35415;47.870;16.058;2022-09-02T10:18:53;97411.16;;;20.84;50.96
49515;BME280;35415;47.870;16.058;2022-09-02T10:21:34;97391.25;;;20.75;51.20
49515;BME280;35415;47.870;16.058;2022-09-02T10:24:15;97345.88;;;20.53;47.31
49515;BME280;35415;47.870;16.058;2022-09-02T10:26:49;97364.53;;;20.81;46.95
49515;BME280;35415;47.870;16.058;2022-09-02T10:29:35;97345.00;;;20.70;48.30
49515;BME280;35415;47.870;16.058;2022-09-02T10:35:10;97343.97;;;20.75;47.83
49515;BME280;35415;47.870;16.058;2022-09-02T10:37:47;97365.28;;;20.90;44.90
49515;BME280;35415;47.870;16.058;2022-09-02T10:40:22;97377.47;;;20.92;46.01
49515;BME280;35415;47.870;16.058;2022-09-02T10:43:00;97330.06;;;20.67;45.68
49515;BME280;35415;47.870;16.058;2022-09-02T10:45:35;97396.84;;;21.08;46.21
49515;BME280;35415;47.870;16.058;2022-09-02T10:48:13;97378.63;;;21.12;47.21
49515;BME280;35415;47.870;16.058;2022-09-02T10:50:51;97381.56;;;21.07;46.87
49515;BME280;35415;47.870;16.058;2022-09-02T10:53:44;97426.72;;;21.43;46.89
49515;BME280;35415;47.870;16.058;2022-09-02T10:56:18;97381.47;;;21.24;45.62
49515;BME280;35415;47.870;16.058;2022-09-02T10:58:51;97415.03;;;21.54;46.86
49515;BME280;35415;47.870;16.058;2022-09-02T11:01:24;97346.50;;;21.30;47.33
49515;BME280;35415;47.870;16.058;2022-09-02T11:04:03;97398.22;;;21.77;46.70
49515;BME280;35415;47.870;16.058;2022-09-02T11:06:38;97424.09;;;22.00;45.46
49515;BME280;35415;47.870;16.058;2022-09-02T11:09:11;97349.75;;;21.77;45.97
49515;BME280;35415;47.870;16.058;2022-09-02T11:11:43;97412.56;;;22.28;43.33
49515;BME280;35415;47.870;16.058;2022-09-02T11:14:17;97401.38;;;22.45;43.95
49515;BME280;35415;47.870;16.058;2022-09-02T11:16:50;97321.28;;;22.03;42.92
49515;BME280;35415;47.870;16.058;2022-09-02T11:19:25;97414.66;;;22.79;45.20
49515;BME280;35415;47.870;16.058;2022-09-02T11:22:00;97346.56;;;22.57;44.61
49515;BME280;35415;47.870;16.058;2022-09-02T11:24:33;97397.41;;;23.03;41.06
49515;BME280;35415;47.870;16.058;2022-09-02T11:27:09;97341.53;;;22.96;43.53
49515;BME280;35415;47.870;16.058;2022-09-02T11:29:47;97325.88;;;22.96;43.41
49515;BME280;35415;47.870;16.058;2022-09-02T11:32:21;97303.78;;;23.05;42.89
49515;BME280;35415;47.870;16.058;2022-09-02T11:34:54;97292.22;;;23.11;41.36
49515;BME280;35415;47.870;16.058;2022-09-02T11:37:29;97378.78;;;23.77;41.80
49515;BME280;35415;47.870;16.058;2022-09-02T11:40:04;97334.91;;;23.65;40.43
49515;BME280;35415;47.870;16.058;2022-09-02T11:42:54;97383.38;;;24.17;41.54
49515;BME280;35415;47.870;16.058;2022-09-02T11:45:51;97359.72;;;24.12;42.53
49515;BME280;35415;47.870;16.058;2022-09-02T11:48:42;97364.09;;;24.29;40.04
49515;BME280;35415;47.870;16.058;2022-09-02T11:51:34;97372.50;;;24.52;40.96
49515;BME280;35415;47.870;16.058;2022-09-02T11:54:11;97317.25;;;24.25;39.76
49515;BME280;35415;47.870;16.058;2022-09-02T11:56:43;97327.91;;;24.43;40.12
49515;BME280;35415;47.870;16.058;2022-09-02T11:59:19;97357.06;;;24.63;40.16
49515;BME280;35415;47.870;16.058;2022-09-02T12:01:49;97386.84;;;24.93;38.18
49515;BME280;35415;47.870;16.058;2022-09-02T12:04:19;97382.50;;;25.07;38.32
49515;BME280;35415;47.870;16.058;2022-09-02T12:07:23;97370.91;;;25.17;40.59
49515;BME280;35415;47.870;16.058;2022-09-02T12:09:53;97288.75;;;24.65;38.93
49515;BME280;35415;47.870;16.058;2022-09-02T12:15:30;97365.44;;;25.37;37.10
49515;BME280;35415;47.870;16.058;2022-09-02T12:18:13;97380.88;;;25.41;37.73
49515;BME280;35415;47.870;16.058;2022-09-02T12:21:06;97369.56;;;25.46;38.14
49515;BME280;35415;47.870;16.058;2022-09-02T12:24:02;97369.25;;;25.52;38.86
49515;BME280;35415;47.870;16.058;2022-09-02T12:29:34;97322.16;;;25.18;36.21
49515;BME280;35415;47.870;16.058;2022-09-02T12:32:02;97349.28;;;25.55;36.00
49515;BME280;35415;47.870;16.058;2022-09-02T12:34:53;97367.16;;;25.64;38.14
49515;BME280;35415;47.870;16.058;2022-09-02T12:37:53;97364.84;;;25.66;38.16
49515;BME280;35415;47.870;16.058;2022-09-02T12:40:26;97368.63;;;25.58;35.96
49515;BME280;35415;47.870;16.058;2022-09-02T12:43:21;97307.41;;;25.26;36.75
49515;BME280;35415;47.870;16.058;2022-09-02T12:45:53;97335.00;;;25.30;36.66
49515;BME280;35415;47.870;16.058;2022-09-02T12:48:23;97301.63;;;24.96;35.53
49515;BME280;35415;47.870;16.058;2022-09-02T12:50:56;97359.56;;;25.38;35.25
49515;BME280;35415;47.870;16.058;2022-09-02T12:53:32;97260.63;;;24.72;37.33
49515;BME280;35415;47.870;16.058;2022-09-02T12:56:04;97362.03;;;25.24;34.33
49515;BME280;35415;47.870;16.058;2022-09-02T12:58:38;97346.22;;;25.21;36.03
49515;BME280;35415;47.870;16.058;2022-09-02T13:01:20;97238.31;;;24.57;36.85
49515;BME280;35415;47.870;16.058;2022-09-02T13:04:17;97335.66;;;25.23;37.46
49515;BME280;35415;47.870;16.058;2022-09-02T13:09:58;97343.47;;;25.21;37.09
49515;BME280;35415;47.870;16.058;2022-09-02T13:13:02;97245.19;;;24.67;37.64
49515;BME280;35415;47.870;16.058;2022-09-02T13:15:55;97255.34;;;24.82;37.62
49515;BME280;35415;47.870;16.058;2022-09-02T13:19:13;97287.13;;;24.99;37.66
49515;BME280;35415;47.870;16.058;2022-09-02T13:25:16;97329.06;;;25.28;36.23
49515;BME280;35415;47.870;16.058;2022-09-02T13:31:03;97331.59;;;25.36;36.51
49515;BME280;35415;47.870;16.058;2022-09-02T13:33:34;97272.25;;;25.00;34.52
49515;BME280;35415;47.870;16.058;2022-09-02T13:36:02;97288.13;;;25.07;33.49